トロムソ の空港の天気 - METARとTAF

トロムソ空港 ( ENTC / TOS ) - ノルウェー トロムス県トロムソ
飛行場実況気象(Metar)
観測時間06/19 17:50 CEST (06/19 15:50 UTC)
風向・風速北北東 5m/s
視程10km以上
天気現象
全天の8割程度の雲 雲底高度 1860m
気温13℃
湿度72%
気圧992hPa
METARENTC 191550Z 02009KT 9999 BKN061 13/08 Q0992 NOSIG RMK WIND 2600FT 03007KT
過去の天気等 Google飛行場航空写真 Wunderground天気予報

過去48時間のMETAR

飛行場予報(TAF)
発表時間: -
19日23時 CEST から 確率 40% で
視程4000m
天気現象雨霧雨
全天の8割程度の雲 雲底高度 240m
TAF ENTC 1912/2012 04008KT 9999 FEW030 BKN050
PROB40 1921/2006 4000 RADZ BKN008